sensor_id;sensor_type;location;lat;lon;timestamp;P1;durP1;ratioP1;P2;durP2;ratioP2
297;SDS011;133;49.626;9.680;2023-09-19T00:02:17;2.10;;;1.80;;
297;SDS011;133;49.626;9.680;2023-09-19T00:04:43;2.63;;;1.70;;
297;SDS011;133;49.626;9.680;2023-09-19T00:07:09;3.50;;;2.10;;
297;SDS011;133;49.626;9.680;2023-09-19T00:09:35;2.50;;;1.90;;
297;SDS011;133;49.626;9.680;2023-09-19T00:12:05;2.67;;;2.00;;
297;SDS011;133;49.626;9.680;2023-09-19T00:14:31;3.87;;;2.00;;
297;SDS011;133;49.626;9.680;2023-09-19T00:17:01;1.87;;;1.83;;
297;SDS011;133;49.626;9.680;2023-09-19T00:19:33;3.60;;;1.70;;
297;SDS011;133;49.626;9.680;2023-09-19T00:21:59;2.60;;;2.40;;
297;SDS011;133;49.626;9.680;2023-09-19T00:24:25;2.00;;;1.90;;
297;SDS011;133;49.626;9.680;2023-09-19T00:26:53;3.47;;;2.20;;
297;SDS011;133;49.626;9.680;2023-09-19T00:29:20;3.73;;;2.23;;
297;SDS011;133;49.626;9.680;2023-09-19T00:31:46;2.93;;;2.10;;
297;SDS011;133;49.626;9.680;2023-09-19T00:34:12;2.87;;;2.47;;
297;SDS011;133;49.626;9.680;2023-09-19T00:36:37;2.60;;;2.30;;
297;SDS011;133;49.626;9.680;2023-09-19T00:39:08;4.20;;;2.20;;
297;SDS011;133;49.626;9.680;2023-09-19T00:41:33;3.30;;;2.20;;
297;SDS011;133;49.626;9.680;2023-09-19T00:44:01;3.87;;;2.10;;
297;SDS011;133;49.626;9.680;2023-09-19T00:46:27;3.50;;;2.50;;
297;SDS011;133;49.626;9.680;2023-09-19T00:48:53;4.00;;;2.20;;
297;SDS011;133;49.626;9.680;2023-09-19T00:51:19;2.50;;;2.20;;
297;SDS011;133;49.626;9.680;2023-09-19T00:53:46;3.70;;;2.33;;
297;SDS011;133;49.626;9.680;2023-09-19T00:56:12;2.43;;;2.27;;
297;SDS011;133;49.626;9.680;2023-09-19T00:58:40;2.50;;;2.30;;
297;SDS011;133;49.626;9.680;2023-09-19T01:01:05;2.40;;;2.20;;
297;SDS011;133;49.626;9.680;2023-09-19T01:03:36;2.80;;;2.60;;
297;SDS011;133;49.626;9.680;2023-09-19T01:06:02;3.17;;;2.40;;
297;SDS011;133;49.626;9.680;2023-09-19T01:08:27;3.60;;;2.60;;
297;SDS011;133;49.626;9.680;2023-09-19T01:11:02;3.20;;;3.00;;
297;SDS011;133;49.626;9.680;2023-09-19T01:13:43;2.90;;;2.70;;
297;SDS011;133;49.626;9.680;2023-09-19T01:16:19;2.83;;;2.63;;
297;SDS011;133;49.626;9.680;2023-09-19T01:22:11;4.33;;;3.30;;
297;SDS011;133;49.626;9.680;2023-09-19T01:30:33;6.10;;;4.10;;
297;SDS011;133;49.626;9.680;2023-09-19T01:33:05;3.77;;;3.57;;
297;SDS011;133;49.626;9.680;2023-09-19T01:35:31;7.10;;;3.80;;
297;SDS011;133;49.626;9.680;2023-09-19T01:37:59;4.80;;;3.53;;
297;SDS011;133;49.626;9.680;2023-09-19T01:40:24;4.43;;;3.73;;
297;SDS011;133;49.626;9.680;2023-09-19T01:46:09;6.70;;;4.13;;
297;SDS011;133;49.626;9.680;2023-09-19T01:53:33;4.00;;;3.80;;
297;SDS011;133;49.626;9.680;2023-09-19T01:56:19;6.13;;;4.30;;
297;SDS011;133;49.626;9.680;2023-09-19T01:58:51;4.50;;;4.17;;
297;SDS011;133;49.626;9.680;2023-09-19T02:01:22;6.80;;;4.33;;
297;SDS011;133;49.626;9.680;2023-09-19T02:03:49;4.23;;;3.97;;
297;SDS011;133;49.626;9.680;2023-09-19T02:06:15;5.03;;;4.73;;
297;SDS011;133;49.626;9.680;2023-09-19T02:08:43;4.90;;;4.53;;
297;SDS011;133;49.626;9.680;2023-09-19T02:11:10;5.60;;;4.70;;
297;SDS011;133;49.626;9.680;2023-09-19T02:13:36;6.83;;;4.90;;
297;SDS011;133;49.626;9.680;2023-09-19T02:16:03;5.17;;;4.87;;
297;SDS011;133;49.626;9.680;2023-09-19T02:18:29;4.87;;;4.57;;
297;SDS011;133;49.626;9.680;2023-09-19T02:20:55;4.57;;;4.27;;
297;SDS011;133;49.626;9.680;2023-09-19T02:23:23;4.60;;;4.33;;
297;SDS011;133;49.626;9.680;2023-09-19T02:25:54;8.07;;;5.07;;
297;SDS011;133;49.626;9.680;2023-09-19T02:28:22;7.90;;;4.93;;
297;SDS011;133;49.626;9.680;2023-09-19T02:30:48;6.50;;;5.17;;
297;SDS011;133;49.626;9.680;2023-09-19T02:33:14;5.50;;;4.67;;
297;SDS011;133;49.626;9.680;2023-09-19T02:35:40;6.40;;;6.00;;
297;SDS011;133;49.626;9.680;2023-09-19T02:38:05;7.53;;;5.97;;
297;SDS011;133;49.626;9.680;2023-09-19T02:40:32;5.97;;;5.67;;
297;SDS011;133;49.626;9.680;2023-09-19T02:43:00;8.90;;;5.77;;
297;SDS011;133;49.626;9.680;2023-09-19T02:45:27;6.47;;;6.07;;
297;SDS011;133;49.626;9.680;2023-09-19T02:47:53;7.27;;;6.87;;
297;SDS011;133;49.626;9.680;2023-09-19T02:50:19;7.27;;;6.90;;
297;SDS011;133;49.626;9.680;2023-09-19T02:52:45;7.17;;;6.77;;
297;SDS011;133;49.626;9.680;2023-09-19T02:55:14;7.90;;;6.80;;
297;SDS011;133;49.626;9.680;2023-09-19T02:57:52;8.97;;;6.70;;
297;SDS011;133;49.626;9.680;2023-09-19T03:00:22;7.80;;;7.43;;
297;SDS011;133;49.626;9.680;2023-09-19T03:02:49;8.77;;;7.00;;
297;SDS011;133;49.626;9.680;2023-09-19T03:05:15;7.77;;;7.00;;
297;SDS011;133;49.626;9.680;2023-09-19T03:07:41;6.50;;;6.10;;
297;SDS011;133;49.626;9.680;2023-09-19T03:10:08;11.60;;;6.40;;
297;SDS011;133;49.626;9.680;2023-09-19T03:12:34;12.23;;;6.80;;
297;SDS011;133;49.626;9.680;2023-09-19T03:15:00;6.50;;;6.10;;
297;SDS011;133;49.626;9.680;2023-09-19T03:17:27;6.93;;;6.53;;
297;SDS011;133;49.626;9.680;2023-09-19T03:19:53;6.80;;;6.40;;
297;SDS011;133;49.626;9.680;2023-09-19T03:22:19;8.00;;;6.60;;
297;SDS011;133;49.626;9.680;2023-09-19T03:24:44;6.50;;;6.10;;
297;SDS011;133;49.626;9.680;2023-09-19T03:27:11;8.37;;;6.30;;
297;SDS011;133;49.626;9.680;2023-09-19T03:29:39;6.37;;;6.00;;
297;SDS011;133;49.626;9.680;2023-09-19T03:32:05;6.00;;;5.70;;
297;SDS011;133;49.626;9.680;2023-09-19T03:34:30;6.50;;;6.10;;
297;SDS011;133;49.626;9.680;2023-09-19T03:36:56;6.87;;;6.47;;
297;SDS011;133;49.626;9.680;2023-09-19T03:39:21;6.77;;;6.37;;
297;SDS011;133;49.626;9.680;2023-09-19T03:41:47;7.43;;;7.03;;
297;SDS011;133;49.626;9.680;2023-09-19T03:44:14;6.87;;;6.47;;
297;SDS011;133;49.626;9.680;2023-09-19T03:46:40;7.43;;;7.03;;
297;SDS011;133;49.626;9.680;2023-09-19T03:49:05;7.20;;;6.80;;
297;SDS011;133;49.626;9.680;2023-09-19T03:51:31;7.50;;;7.13;;
297;SDS011;133;49.626;9.680;2023-09-19T03:53:59;7.83;;;7.43;;
297;SDS011;133;49.626;9.680;2023-09-19T03:56:25;7.73;;;7.33;;
297;SDS011;133;49.626;9.680;2023-09-19T03:58:50;8.53;;;8.03;;
297;SDS011;133;49.626;9.680;2023-09-19T04:01:16;8.17;;;7.77;;
297;SDS011;133;49.626;9.680;2023-09-19T04:03:43;9.00;;;8.50;;
297;SDS011;133;49.626;9.680;2023-09-19T04:06:13;8.10;;;7.70;;
297;SDS011;133;49.626;9.680;2023-09-19T04:08:39;7.47;;;7.07;;
297;SDS011;133;49.626;9.680;2023-09-19T04:11:05;8.13;;;7.33;;
297;SDS011;133;49.626;9.680;2023-09-19T04:13:31;8.00;;;7.43;;
297;SDS011;133;49.626;9.680;2023-09-19T04:15:56;10.67;;;7.60;;
297;SDS011;133;49.626;9.680;2023-09-19T04:18:22;7.23;;;6.83;;
297;SDS011;133;49.626;9.680;2023-09-19T04:20:51;8.37;;;7.23;;
297;SDS011;133;49.626;9.680;2023-09-19T04:23:17;7.27;;;6.40;;
297;SDS011;133;49.626;9.680;2023-09-19T04:25:46;7.40;;;7.00;;
297;SDS011;133;49.626;9.680;2023-09-19T04:28:11;6.60;;;6.20;;
297;SDS011;133;49.626;9.680;2023-09-19T04:30:37;8.70;;;6.20;;
297;SDS011;133;49.626;9.680;2023-09-19T04:33:05;6.27;;;5.93;;
297;SDS011;133;49.626;9.680;2023-09-19T04:35:31;6.40;;;6.00;;
297;SDS011;133;49.626;9.680;2023-09-19T04:37:57;5.70;;;5.40;;
297;SDS011;133;49.626;9.680;2023-09-19T04:40:23;6.13;;;5.83;;
297;SDS011;133;49.626;9.680;2023-09-19T04:42:55;5.90;;;5.60;;
297;SDS011;133;49.626;9.680;2023-09-19T04:45:24;10.17;;;5.40;;
297;SDS011;133;49.626;9.680;2023-09-19T04:47:49;7.50;;;5.27;;
297;SDS011;133;49.626;9.680;2023-09-19T04:50:15;5.70;;;5.40;;
297;SDS011;133;49.626;9.680;2023-09-19T04:52:42;5.07;;;4.73;;
297;SDS011;133;49.626;9.680;2023-09-19T04:55:09;5.60;;;5.30;;
297;SDS011;133;49.626;9.680;2023-09-19T04:57:38;7.97;;;7.17;;
297;SDS011;133;49.626;9.680;2023-09-19T05:00:04;5.40;;;5.10;;
297;SDS011;133;49.626;9.680;2023-09-19T05:02:37;6.80;;;6.10;;
297;SDS011;133;49.626;9.680;2023-09-19T05:05:03;9.30;;;7.10;;
297;SDS011;133;49.626;9.680;2023-09-19T05:07:29;6.00;;;5.70;;
297;SDS011;133;49.626;9.680;2023-09-19T05:09:55;6.93;;;6.60;;
297;SDS011;133;49.626;9.680;2023-09-19T05:12:21;6.83;;;6.43;;
297;SDS011;133;49.626;9.680;2023-09-19T05:14:46;8.00;;;6.27;;
297;SDS011;133;49.626;9.680;2023-09-19T05:17:12;6.80;;;6.40;;
297;SDS011;133;49.626;9.680;2023-09-19T05:19:41;6.07;;;5.77;;
297;SDS011;133;49.626;9.680;2023-09-19T05:22:07;5.90;;;5.67;;
297;SDS011;133;49.626;9.680;2023-09-19T05:24:33;6.87;;;6.47;;
297;SDS011;133;49.626;9.680;2023-09-19T05:26:59;6.13;;;5.90;;
297;SDS011;133;49.626;9.680;2023-09-19T05:29:24;6.83;;;5.90;;
297;SDS011;133;49.626;9.680;2023-09-19T05:31:50;7.63;;;6.30;;
297;SDS011;133;49.626;9.680;2023-09-19T05:34:16;6.90;;;6.20;;
297;SDS011;133;49.626;9.680;2023-09-19T05:36:41;6.63;;;5.60;;
297;SDS011;133;49.626;9.680;2023-09-19T05:39:08;5.50;;;5.20;;
297;SDS011;133;49.626;9.680;2023-09-19T05:41:35;6.07;;;5.60;;
297;SDS011;133;49.626;9.680;2023-09-19T05:44:02;5.30;;;5.00;;
297;SDS011;133;49.626;9.680;2023-09-19T05:46:28;7.37;;;5.53;;
297;SDS011;133;49.626;9.680;2023-09-19T05:48:54;5.33;;;5.03;;
297;SDS011;133;49.626;9.680;2023-09-19T05:51:21;5.10;;;4.60;;
297;SDS011;133;49.626;9.680;2023-09-19T05:53:48;5.50;;;4.37;;
297;SDS011;133;49.626;9.680;2023-09-19T05:56:14;4.50;;;4.20;;
297;SDS011;133;49.626;9.680;2023-09-19T05:58:40;6.10;;;4.80;;
297;SDS011;133;49.626;9.680;2023-09-19T06:01:09;5.47;;;4.17;;
297;SDS011;133;49.626;9.680;2023-09-19T06:03:35;5.40;;;4.10;;
297;SDS011;133;49.626;9.680;2023-09-19T06:06:01;5.47;;;4.10;;
297;SDS011;133;49.626;9.680;2023-09-19T06:08:27;4.40;;;4.10;;
297;SDS011;133;49.626;9.680;2023-09-19T06:10:53;4.67;;;3.70;;
297;SDS011;133;49.626;9.680;2023-09-19T06:13:19;5.17;;;3.90;;
297;SDS011;133;49.626;9.680;2023-09-19T06:15:45;6.73;;;4.43;;
297;SDS011;133;49.626;9.680;2023-09-19T06:18:14;3.83;;;3.63;;
297;SDS011;133;49.626;9.680;2023-09-19T06:20:45;4.73;;;3.80;;
297;SDS011;133;49.626;9.680;2023-09-19T06:23:16;5.47;;;3.97;;
297;SDS011;133;49.626;9.680;2023-09-19T06:25:42;6.97;;;4.10;;
297;SDS011;133;49.626;9.680;2023-09-19T06:28:11;8.23;;;3.87;;
297;SDS011;133;49.626;9.680;2023-09-19T06:30:39;4.03;;;3.83;;
297;SDS011;133;49.626;9.680;2023-09-19T06:33:05;6.43;;;3.60;;
297;SDS011;133;49.626;9.680;2023-09-19T06:35:32;5.30;;;3.60;;
297;SDS011;133;49.626;9.680;2023-09-19T06:37:58;3.80;;;3.37;;
297;SDS011;133;49.626;9.680;2023-09-19T06:40:24;3.57;;;3.37;;
297;SDS011;133;49.626;9.680;2023-09-19T06:42:53;3.73;;;3.53;;
297;SDS011;133;49.626;9.680;2023-09-19T06:45:21;4.20;;;3.77;;
297;SDS011;133;49.626;9.680;2023-09-19T06:47:50;8.90;;;3.83;;
297;SDS011;133;49.626;9.680;2023-09-19T06:50:17;4.40;;;3.50;;
297;SDS011;133;49.626;9.680;2023-09-19T06:52:45;4.13;;;3.63;;
297;SDS011;133;49.626;9.680;2023-09-19T06:55:15;4.03;;;3.60;;
297;SDS011;133;49.626;9.680;2023-09-19T06:57:42;9.97;;;3.80;;
297;SDS011;133;49.626;9.680;2023-09-19T07:00:11;5.07;;;3.33;;
297;SDS011;133;49.626;9.680;2023-09-19T07:02:43;5.33;;;3.33;;
297;SDS011;133;49.626;9.680;2023-09-19T07:05:09;6.53;;;3.67;;
297;SDS011;133;49.626;9.680;2023-09-19T07:07:35;6.30;;;3.90;;
297;SDS011;133;49.626;9.680;2023-09-19T07:10:04;5.70;;;3.57;;
297;SDS011;133;49.626;9.680;2023-09-19T07:12:30;6.30;;;3.40;;
297;SDS011;133;49.626;9.680;2023-09-19T07:14:57;8.30;;;3.37;;
297;SDS011;133;49.626;9.680;2023-09-19T07:17:23;6.33;;;3.07;;
297;SDS011;133;49.626;9.680;2023-09-19T07:19:49;4.77;;;3.47;;
297;SDS011;133;49.626;9.680;2023-09-19T07:22:15;5.13;;;3.30;;
297;SDS011;133;49.626;9.680;2023-09-19T07:24:41;5.17;;;3.00;;
297;SDS011;133;49.626;9.680;2023-09-19T07:27:06;4.30;;;3.00;;
297;SDS011;133;49.626;9.680;2023-09-19T07:29:32;7.23;;;3.20;;
297;SDS011;133;49.626;9.680;2023-09-19T07:31:57;6.90;;;2.93;;
297;SDS011;133;49.626;9.680;2023-09-19T07:34:23;5.00;;;3.00;;
297;SDS011;133;49.626;9.680;2023-09-19T07:36:49;4.13;;;3.10;;
297;SDS011;133;49.626;9.680;2023-09-19T07:39:15;3.33;;;3.13;;
297;SDS011;133;49.626;9.680;2023-09-19T07:41:41;9.00;;;3.13;;
297;SDS011;133;49.626;9.680;2023-09-19T07:44:07;6.07;;;3.30;;
297;SDS011;133;49.626;9.680;2023-09-19T07:46:33;7.50;;;3.57;;
297;SDS011;133;49.626;9.680;2023-09-19T07:48:59;5.00;;;3.10;;
297;SDS011;133;49.626;9.680;2023-09-19T07:51:25;5.53;;;3.40;;
297;SDS011;133;49.626;9.680;2023-09-19T07:53:52;5.30;;;3.60;;
297;SDS011;133;49.626;9.680;2023-09-19T07:56:17;6.77;;;3.43;;
297;SDS011;133;49.626;9.680;2023-09-19T07:58:45;5.97;;;3.10;;
297;SDS011;133;49.626;9.680;2023-09-19T08:01:11;4.57;;;3.43;;
297;SDS011;133;49.626;9.680;2023-09-19T08:03:37;3.23;;;3.03;;
297;SDS011;133;49.626;9.680;2023-09-19T08:06:05;5.90;;;3.10;;
297;SDS011;133;49.626;9.680;2023-09-19T08:08:32;6.43;;;3.10;;
297;SDS011;133;49.626;9.680;2023-09-19T08:11:02;5.20;;;3.17;;
297;SDS011;133;49.626;9.680;2023-09-19T08:13:29;6.13;;;2.90;;
297;SDS011;133;49.626;9.680;2023-09-19T08:15:56;4.73;;;3.63;;
297;SDS011;133;49.626;9.680;2023-09-19T08:18:21;3.83;;;3.17;;
297;SDS011;133;49.626;9.680;2023-09-19T08:20:51;3.73;;;2.87;;
297;SDS011;133;49.626;9.680;2023-09-19T08:23:18;3.83;;;2.63;;
297;SDS011;133;49.626;9.680;2023-09-19T08:25:45;2.80;;;2.60;;
297;SDS011;133;49.626;9.680;2023-09-19T08:28:11;2.90;;;2.70;;
297;SDS011;133;49.626;9.680;2023-09-19T08:30:44;3.83;;;2.93;;
297;SDS011;133;49.626;9.680;2023-09-19T08:33:12;3.20;;;2.60;;
297;SDS011;133;49.626;9.680;2023-09-19T08:35:40;4.80;;;2.90;;
297;SDS011;133;49.626;9.680;2023-09-19T08:38:08;3.93;;;2.70;;
297;SDS011;133;49.626;9.680;2023-09-19T08:40:39;3.70;;;2.80;;
297;SDS011;133;49.626;9.680;2023-09-19T08:43:07;3.67;;;2.83;;
297;SDS011;133;49.626;9.680;2023-09-19T08:45:33;3.83;;;2.80;;
297;SDS011;133;49.626;9.680;2023-09-19T08:48:10;5.50;;;3.00;;
297;SDS011;133;49.626;9.680;2023-09-19T08:51:00;3.10;;;2.80;;
297;SDS011;133;49.626;9.680;2023-09-19T08:56:16;4.07;;;3.20;;
297;SDS011;133;49.626;9.680;2023-09-19T08:59:05;4.23;;;2.50;;
297;SDS011;133;49.626;9.680;2023-09-19T09:01:30;10.93;;;2.63;;
297;SDS011;133;49.626;9.680;2023-09-19T09:03:57;4.70;;;2.63;;
297;SDS011;133;49.626;9.680;2023-09-19T09:06:23;3.60;;;2.77;;
297;SDS011;133;49.626;9.680;2023-09-19T09:08:50;4.37;;;3.37;;
297;SDS011;133;49.626;9.680;2023-09-19T09:11:17;2.93;;;2.60;;
297;SDS011;133;49.626;9.680;2023-09-19T09:13:46;3.60;;;2.70;;
297;SDS011;133;49.626;9.680;2023-09-19T09:16:13;4.37;;;4.10;;
297;SDS011;133;49.626;9.680;2023-09-19T09:18:42;4.10;;;2.67;;
297;SDS011;133;49.626;9.680;2023-09-19T09:21:09;6.40;;;2.60;;
297;SDS011;133;49.626;9.680;2023-09-19T09:23:35;3.67;;;2.80;;
297;SDS011;133;49.626;9.680;2023-09-19T09:26:00;4.97;;;2.87;;
297;SDS011;133;49.626;9.680;2023-09-19T09:28:31;2.90;;;2.60;;
297;SDS011;133;49.626;9.680;2023-09-19T09:30:59;3.00;;;2.60;;
297;SDS011;133;49.626;9.680;2023-09-19T09:33:28;3.97;;;2.73;;
297;SDS011;133;49.626;9.680;2023-09-19T09:35:54;8.80;;;3.00;;
297;SDS011;133;49.626;9.680;2023-09-19T09:38:25;5.20;;;2.90;;
297;SDS011;133;49.626;9.680;2023-09-19T09:40:52;4.00;;;3.00;;
297;SDS011;133;49.626;9.680;2023-09-19T09:43:26;5.40;;;3.20;;
297;SDS011;133;49.626;9.680;2023-09-19T09:46:10;2.90;;;2.63;;
297;SDS011;133;49.626;9.680;2023-09-19T09:48:58;2.90;;;2.70;;
297;SDS011;133;49.626;9.680;2023-09-19T09:51:57;2.70;;;2.50;;
297;SDS011;133;49.626;9.680;2023-09-19T09:54:26;5.90;;;2.70;;
297;SDS011;133;49.626;9.680;2023-09-19T09:57:03;3.60;;;2.80;;
297;SDS011;133;49.626;9.680;2023-09-19T10:02:46;3.70;;;2.80;;
297;SDS011;133;49.626;9.680;2023-09-19T10:05:18;3.60;;;2.67;;
297;SDS011;133;49.626;9.680;2023-09-19T10:07:45;5.37;;;3.00;;
297;SDS011;133;49.626;9.680;2023-09-19T10:10:29;3.50;;;2.80;;
297;SDS011;133;49.626;9.680;2023-09-19T10:13:08;3.97;;;2.67;;
297;SDS011;133;49.626;9.680;2023-09-19T10:15:40;7.63;;;3.40;;
297;SDS011;133;49.626;9.680;2023-09-19T10:18:12;5.17;;;2.80;;
297;SDS011;133;49.626;9.680;2023-09-19T10:20:43;3.37;;;3.17;;
297;SDS011;133;49.626;9.680;2023-09-19T10:23:11;5.10;;;3.17;;
297;SDS011;133;49.626;9.680;2023-09-19T10:25:43;4.70;;;3.03;;
297;SDS011;133;49.626;9.680;2023-09-19T10:28:13;3.20;;;2.80;;
297;SDS011;133;49.626;9.680;2023-09-19T10:30:44;4.80;;;2.70;;
297;SDS011;133;49.626;9.680;2023-09-19T10:33:17;4.30;;;3.03;;
297;SDS011;133;49.626;9.680;2023-09-19T10:35:46;3.13;;;2.93;;
297;SDS011;133;49.626;9.680;2023-09-19T10:38:33;8.17;;;3.10;;
297;SDS011;133;49.626;9.680;2023-09-19T10:41:00;6.73;;;3.00;;
297;SDS011;133;49.626;9.680;2023-09-19T10:43:31;3.87;;;3.00;;
297;SDS011;133;49.626;9.680;2023-09-19T10:46:01;4.27;;;2.83;;
297;SDS011;133;49.626;9.680;2023-09-19T10:48:30;5.23;;;2.80;;
297;SDS011;133;49.626;9.680;2023-09-19T10:50:58;4.30;;;2.60;;
297;SDS011;133;49.626;9.680;2023-09-19T10:54:20;2.70;;;2.50;;
297;SDS011;133;49.626;9.680;2023-09-19T10:56:33;5.50;;;2.70;;
297;SDS011;133;49.626;9.680;2023-09-19T10:59:07;3.33;;;2.80;;
297;SDS011;133;49.626;9.680;2023-09-19T11:01:51;6.33;;;2.90;;
297;SDS011;133;49.626;9.680;2023-09-19T11:04:35;3.23;;;2.37;;
297;SDS011;133;49.626;9.680;2023-09-19T11:07:02;4.93;;;2.50;;
297;SDS011;133;49.626;9.680;2023-09-19T11:09:45;3.00;;;2.20;;
297;SDS011;133;49.626;9.680;2023-09-19T11:26:40;3.60;;;2.37;;
297;SDS011;133;49.626;9.680;2023-09-19T11:29:25;6.33;;;2.73;;
297;SDS011;133;49.626;9.680;2023-09-19T11:31:52;5.60;;;2.80;;
297;SDS011;133;49.626;9.680;2023-09-19T11:40:06;4.50;;;2.70;;
297;SDS011;133;49.626;9.680;2023-09-19T11:42:45;5.00;;;2.10;;
297;SDS011;133;49.626;9.680;2023-09-19T11:48:11;3.50;;;2.30;;
297;SDS011;133;49.626;9.680;2023-09-19T11:50:50;3.60;;;2.13;;
297;SDS011;133;49.626;9.680;2023-09-19T11:53:16;3.73;;;2.43;;
297;SDS011;133;49.626;9.680;2023-09-19T11:55:45;3.60;;;2.43;;
297;SDS011;133;49.626;9.680;2023-09-19T11:58:17;3.80;;;2.63;;
297;SDS011;133;49.626;9.680;2023-09-19T12:00:45;4.73;;;2.30;;
297;SDS011;133;49.626;9.680;2023-09-19T12:03:11;2.53;;;2.40;;
297;SDS011;133;49.626;9.680;2023-09-19T12:05:39;2.87;;;2.30;;
297;SDS011;133;49.626;9.680;2023-09-19T12:08:05;2.37;;;2.20;;
297;SDS011;133;49.626;9.680;2023-09-19T12:10:45;6.50;;;2.33;;
297;SDS011;133;49.626;9.680;2023-09-19T12:13:18;2.77;;;2.40;;
297;SDS011;133;49.626;9.680;2023-09-19T12:15:44;3.23;;;2.67;;
297;SDS011;133;49.626;9.680;2023-09-19T12:18:31;2.47;;;2.30;;
297;SDS011;133;49.626;9.680;2023-09-19T12:20:58;2.50;;;2.30;;
297;SDS011;133;49.626;9.680;2023-09-19T12:23:25;3.83;;;2.50;;
297;SDS011;133;49.626;9.680;2023-09-19T12:25:51;2.73;;;2.53;;
297;SDS011;133;49.626;9.680;2023-09-19T12:28:18;4.07;;;2.40;;
297;SDS011;133;49.626;9.680;2023-09-19T12:30:48;8.70;;;2.83;;
297;SDS011;133;49.626;9.680;2023-09-19T12:33:17;4.50;;;2.57;;
297;SDS011;133;49.626;9.680;2023-09-19T12:35:50;2.40;;;2.23;;
297;SDS011;133;49.626;9.680;2023-09-19T12:38:27;6.30;;;3.00;;
297;SDS011;133;49.626;9.680;2023-09-19T12:40:54;5.13;;;2.97;;
297;SDS011;133;49.626;9.680;2023-09-19T12:43:23;5.23;;;3.13;;
297;SDS011;133;49.626;9.680;2023-09-19T12:45:50;4.47;;;2.50;;
297;SDS011;133;49.626;9.680;2023-09-19T12:48:19;6.07;;;2.60;;
297;SDS011;133;49.626;9.680;2023-09-19T12:51:05;3.20;;;2.43;;
297;SDS011;133;49.626;9.680;2023-09-19T12:53:36;3.60;;;2.67;;
297;SDS011;133;49.626;9.680;2023-09-19T12:56:05;2.80;;;2.60;;
297;SDS011;133;49.626;9.680;2023-09-19T12:58:33;5.23;;;2.80;;
297;SDS011;133;49.626;9.680;2023-09-19T13:01:00;5.67;;;3.10;;
297;SDS011;133;49.626;9.680;2023-09-19T13:03:26;2.70;;;2.30;;
297;SDS011;133;49.626;9.680;2023-09-19T13:06:03;2.60;;;2.47;;
297;SDS011;133;49.626;9.680;2023-09-19T13:08:30;5.40;;;2.67;;
297;SDS011;133;49.626;9.680;2023-09-19T13:11:10;5.80;;;2.60;;
297;SDS011;133;49.626;9.680;2023-09-19T13:13:51;9.40;;;2.70;;
297;SDS011;133;49.626;9.680;2023-09-19T13:19:40;4.97;;;2.50;;
297;SDS011;133;49.626;9.680;2023-09-19T13:25:05;4.47;;;2.57;;
297;SDS011;133;49.626;9.680;2023-09-19T13:27:33;3.67;;;2.47;;
297;SDS011;133;49.626;9.680;2023-09-19T13:29:59;5.03;;;2.60;;
297;SDS011;133;49.626;9.680;2023-09-19T13:32:25;3.70;;;2.70;;
297;SDS011;133;49.626;9.680;2023-09-19T13:34:51;2.43;;;2.27;;
297;SDS011;133;49.626;9.680;2023-09-19T13:37:16;2.43;;;2.30;;
297;SDS011;133;49.626;9.680;2023-09-19T13:39:43;3.40;;;2.23;;
297;SDS011;133;49.626;9.680;2023-09-19T13:42:12;3.40;;;2.40;;
297;SDS011;133;49.626;9.680;2023-09-19T13:44:38;5.20;;;2.40;;
297;SDS011;133;49.626;9.680;2023-09-19T13:47:06;3.57;;;2.50;;
297;SDS011;133;49.626;9.680;2023-09-19T13:49:35;6.70;;;2.47;;
297;SDS011;133;49.626;9.680;2023-09-19T13:52:01;6.73;;;2.47;;
297;SDS011;133;49.626;9.680;2023-09-19T13:54:30;2.40;;;2.20;;
297;SDS011;133;49.626;9.680;2023-09-19T13:56:55;3.67;;;2.47;;
297;SDS011;133;49.626;9.680;2023-09-19T13:59:21;2.70;;;2.23;;
297;SDS011;133;49.626;9.680;2023-09-19T14:01:48;3.67;;;2.20;;
297;SDS011;133;49.626;9.680;2023-09-19T14:04:14;3.03;;;2.50;;
297;SDS011;133;49.626;9.680;2023-09-19T14:06:43;3.10;;;2.27;;
297;SDS011;133;49.626;9.680;2023-09-19T14:09:10;4.07;;;2.63;;
297;SDS011;133;49.626;9.680;2023-09-19T14:11:36;2.93;;;2.20;;
297;SDS011;133;49.626;9.680;2023-09-19T14:14:02;5.77;;;2.60;;
297;SDS011;133;49.626;9.680;2023-09-19T14:16:29;2.30;;;2.10;;
297;SDS011;133;49.626;9.680;2023-09-19T14:18:56;5.97;;;2.83;;
297;SDS011;133;49.626;9.680;2023-09-19T14:21:23;2.80;;;2.60;;
297;SDS011;133;49.626;9.680;2023-09-19T14:23:48;2.63;;;2.40;;
297;SDS011;133;49.626;9.680;2023-09-19T14:26:14;4.60;;;3.23;;
297;SDS011;133;49.626;9.680;2023-09-19T14:28:41;3.03;;;2.40;;
297;SDS011;133;49.626;9.680;2023-09-19T14:31:08;4.03;;;2.70;;
297;SDS011;133;49.626;9.680;2023-09-19T14:33:34;3.40;;;2.40;;
297;SDS011;133;49.626;9.680;2023-09-19T14:36:04;5.67;;;2.80;;
297;SDS011;133;49.626;9.680;2023-09-19T14:38:34;3.50;;;2.30;;
297;SDS011;133;49.626;9.680;2023-09-19T14:41:01;5.23;;;2.30;;
297;SDS011;133;49.626;9.680;2023-09-19T14:43:28;3.83;;;2.50;;
297;SDS011;133;49.626;9.680;2023-09-19T14:45:57;6.33;;;2.47;;
297;SDS011;133;49.626;9.680;2023-09-19T14:48:30;2.70;;;2.50;;
297;SDS011;133;49.626;9.680;2023-09-19T14:50:57;3.50;;;2.43;;
297;SDS011;133;49.626;9.680;2023-09-19T14:53:27;2.27;;;2.07;;
297;SDS011;133;49.626;9.680;2023-09-19T14:55:53;3.10;;;2.70;;
297;SDS011;133;49.626;9.680;2023-09-19T14:58:20;2.80;;;2.37;;
297;SDS011;133;49.626;9.680;2023-09-19T15:00:46;4.80;;;2.47;;
297;SDS011;133;49.626;9.680;2023-09-19T15:03:12;3.13;;;2.40;;
297;SDS011;133;49.626;9.680;2023-09-19T15:05:39;5.50;;;2.60;;
297;SDS011;133;49.626;9.680;2023-09-19T15:08:05;2.33;;;2.13;;
297;SDS011;133;49.626;9.680;2023-09-19T15:10:31;4.60;;;2.77;;
297;SDS011;133;49.626;9.680;2023-09-19T15:12:56;4.00;;;2.40;;
297;SDS011;133;49.626;9.680;2023-09-19T15:15:22;7.30;;;2.67;;
297;SDS011;133;49.626;9.680;2023-09-19T15:17:48;2.67;;;2.50;;
297;SDS011;133;49.626;9.680;2023-09-19T15:20:13;6.10;;;2.50;;
297;SDS011;133;49.626;9.680;2023-09-19T15:22:39;2.27;;;2.07;;
297;SDS011;133;49.626;9.680;2023-09-19T15:25:05;4.23;;;2.47;;
297;SDS011;133;49.626;9.680;2023-09-19T15:27:31;4.60;;;2.50;;
297;SDS011;133;49.626;9.680;2023-09-19T15:29:59;6.93;;;2.50;;
297;SDS011;133;49.626;9.680;2023-09-19T15:32:25;3.20;;;2.67;;
297;SDS011;133;49.626;9.680;2023-09-19T15:34:51;2.57;;;2.40;;
297;SDS011;133;49.626;9.680;2023-09-19T15:37:17;3.00;;;2.60;;
297;SDS011;133;49.626;9.680;2023-09-19T15:39:42;4.70;;;2.37;;
297;SDS011;133;49.626;9.680;2023-09-19T15:42:09;2.77;;;2.57;;
297;SDS011;133;49.626;9.680;2023-09-19T15:44:35;4.33;;;2.43;;
297;SDS011;133;49.626;9.680;2023-09-19T15:47:02;3.73;;;2.47;;
297;SDS011;133;49.626;9.680;2023-09-19T15:49:28;3.77;;;2.20;;
297;SDS011;133;49.626;9.680;2023-09-19T15:51:54;4.20;;;2.57;;
297;SDS011;133;49.626;9.680;2023-09-19T15:54:20;3.50;;;2.30;;
297;SDS011;133;49.626;9.680;2023-09-19T15:56:45;4.20;;;2.50;;
297;SDS011;133;49.626;9.680;2023-09-19T15:59:12;6.60;;;2.50;;
297;SDS011;133;49.626;9.680;2023-09-19T16:01:38;3.20;;;2.53;;
297;SDS011;133;49.626;9.680;2023-09-19T16:04:05;5.90;;;2.50;;
297;SDS011;133;49.626;9.680;2023-09-19T16:06:33;3.80;;;2.23;;
297;SDS011;133;49.626;9.680;2023-09-19T16:08:59;2.57;;;2.37;;
297;SDS011;133;49.626;9.680;2023-09-19T16:11:28;2.40;;;2.20;;
297;SDS011;133;49.626;9.680;2023-09-19T16:13:55;3.43;;;2.20;;
297;SDS011;133;49.626;9.680;2023-09-19T16:16:21;3.00;;;2.30;;
297;SDS011;133;49.626;9.680;2023-09-19T16:18:52;2.70;;;2.50;;
297;SDS011;133;49.626;9.680;2023-09-19T16:21:26;2.30;;;2.10;;
297;SDS011;133;49.626;9.680;2023-09-19T16:23:52;4.53;;;2.50;;
297;SDS011;133;49.626;9.680;2023-09-19T16:26:19;3.13;;;2.20;;
297;SDS011;133;49.626;9.680;2023-09-19T16:28:46;9.20;;;2.63;;
297;SDS011;133;49.626;9.680;2023-09-19T16:31:13;2.70;;;2.50;;
297;SDS011;133;49.626;9.680;2023-09-19T16:33:39;4.07;;;2.50;;
297;SDS011;133;49.626;9.680;2023-09-19T16:36:16;2.70;;;2.40;;
297;SDS011;133;49.626;9.680;2023-09-19T16:38:43;3.20;;;2.43;;
297;SDS011;133;49.626;9.680;2023-09-19T16:41:10;3.00;;;2.07;;
297;SDS011;133;49.626;9.680;2023-09-19T16:43:40;4.30;;;2.40;;
297;SDS011;133;49.626;9.680;2023-09-19T16:46:07;2.60;;;2.40;;